createdAt,value
2023-04-24T00:02:33.090Z,99538.63
2023-04-24T00:07:35.557Z,99532.44
2023-04-24T00:12:37.815Z,99545.41
2023-04-24T00:17:39.933Z,99542.88
2023-04-24T00:22:41.917Z,99556.91
2023-04-24T00:27:43.731Z,99555.09
2023-04-24T00:32:45.568Z,99560.53
2023-04-24T00:37:47.400Z,99553.50
2023-04-24T00:42:49.789Z,99547.44
2023-04-24T00:47:54.104Z,99556.06
2023-04-24T00:52:56.427Z,99552.78
2023-04-24T00:57:58.441Z,99550.13
2023-04-24T01:03:05.932Z,99551.81
2023-04-24T01:08:08.299Z,99548.94
2023-04-24T01:13:10.140Z,99547.22
2023-04-24T01:18:12.085Z,99541.78
2023-04-24T01:23:13.874Z,99539.56
2023-04-24T01:28:15.718Z,99528.09
2023-04-24T01:33:17.922Z,99524.25
2023-04-24T01:38:19.910Z,99537.75
2023-04-24T01:43:22.266Z,99542.13
2023-04-24T01:48:24.284Z,99540.31
2023-04-24T01:53:26.090Z,99539.47
2023-04-24T01:58:28.472Z,99538.63
2023-04-24T02:03:30.519Z,99541.28
2023-04-24T02:08:32.419Z,99533.16
2023-04-24T02:13:34.260Z,99528.81
2023-04-24T02:18:36.382Z,99539.47
2023-04-24T02:23:38.152Z,99537.16
2023-04-24T02:28:40.018Z,99535.22
2023-04-24T02:33:41.937Z,99534.16
2023-04-24T02:38:43.788Z,99529.78
2023-04-24T02:43:45.535Z,99536.81
2023-04-24T02:48:47.340Z,99534.16
2023-04-24T02:53:49.069Z,99527.09
2023-04-24T02:58:50.841Z,99528.94
2023-04-24T03:03:52.883Z,99536.06
2023-04-24T03:08:55.269Z,99533.31
2023-04-24T03:13:57.038Z,99536.06
2023-04-24T03:18:58.801Z,99542.13
2023-04-24T03:24:00.578Z,99543.06
2023-04-24T03:29:02.754Z,99543.06
2023-04-24T03:34:04.566Z,99551.19
2023-04-24T03:39:06.720Z,99549.28
2023-04-24T03:44:08.492Z,99553.63
2023-04-24T03:49:10.275Z,99543.06
2023-04-24T03:54:12.078Z,99553.63
2023-04-24T03:59:14.628Z,99555.44
2023-04-24T04:04:16.721Z,99554.19
2023-04-24T04:09:18.676Z,99554.81
2023-04-24T04:14:20.531Z,99568.94
2023-04-24T04:19:22.771Z,99572.69
2023-04-24T04:24:25.399Z,99563.53
2023-04-24T04:29:27.231Z,99563.41
2023-04-24T04:34:29.088Z,99568.22
2023-04-24T04:39:31.802Z,99570.66
2023-04-24T04:44:33.944Z,99580.56
2023-04-24T04:49:35.886Z,99579.75
2023-04-24T04:54:37.690Z,99587.59
2023-04-24T04:59:39.593Z,99595.72
2023-04-24T05:04:41.566Z,99593.88
2023-04-24T05:09:43.874Z,99594.84
2023-04-24T05:14:45.773Z,99597.50
2023-04-24T05:19:47.741Z,99607.19
2023-04-24T05:24:49.532Z,99610.69
2023-04-24T05:29:51.272Z,99620.59
2023-04-24T05:34:54.453Z,99620.84
2023-04-24T05:39:56.230Z,99639.75
2023-04-24T05:44:58.146Z,99649.03
2023-04-24T05:49:59.974Z,99652.63
2023-04-24T05:55:02.035Z,99659.78
2023-04-24T06:00:06.116Z,99660.63
2023-04-24T06:05:09.659Z,99679.25
2023-04-24T06:10:11.847Z,99675.53
2023-04-24T06:15:14.137Z,99688.22
2023-04-24T06:20:15.996Z,99699.59
2023-04-24T06:25:17.836Z,99700.69
2023-04-24T06:30:19.653Z,99708.53
2023-04-24T06:35:21.466Z,99714.81
2023-04-24T06:40:23.802Z,99730.06
2023-04-24T06:45:25.792Z,99732.63
2023-04-24T06:50:27.704Z,99756.56
2023-04-24T06:55:29.662Z,99763.72
2023-04-24T07:00:31.504Z,99761.66
2023-04-24T07:05:35.398Z,99765.63
2023-04-24T07:10:37.306Z,99777.97
2023-04-24T07:15:39.246Z,99794.78
2023-04-24T07:20:41.098Z,99803.88
2023-04-24T07:25:43.175Z,99819.84
2023-04-24T07:30:45.193Z,99843.75
2023-04-24T07:35:47.005Z,99843.19
2023-04-24T07:40:49.867Z,99852.75
2023-04-24T07:45:52.565Z,99862.44
2023-04-24T07:50:55.261Z,99881.78
2023-04-24T07:55:57.736Z,99888.72
2023-04-24T08:00:59.610Z,99897.56
2023-04-24T08:06:01.920Z,99920.63
2023-04-24T08:11:03.814Z,99919.81
2023-04-24T08:16:05.790Z,99919.91
2023-04-24T08:21:07.654Z,99945.88
2023-04-24T08:26:09.611Z,99950.94
2023-04-24T08:31:11.476Z,99966.81
2023-04-24T08:36:13.340Z,99973.78
2023-04-24T08:41:17.224Z,99992.00
2023-04-24T08:46:20.742Z,99997.78
2023-04-24T08:51:23.885Z,100002.69
2023-04-24T08:56:26.285Z,100009.72
2023-04-24T09:01:28.608Z,100011.63
2023-04-24T09:06:31.990Z,100022.69
2023-04-24T09:11:36.613Z,100024.69
2023-04-24T09:16:38.436Z,100032.25
2023-04-24T09:21:41.558Z,100037.88
2023-04-24T09:26:43.554Z,100043.31
2023-04-24T09:31:47.123Z,100050.97
2023-04-24T09:36:49.209Z,100053.63
2023-04-24T09:41:53.203Z,100066.75
2023-04-24T09:46:56.652Z,100064.28
2023-04-24T09:52:08.945Z,100074.66
2023-04-24T09:57:11.008Z,100076.81
2023-04-24T10:02:20.990Z,100086.91
2023-04-24T10:07:22.896Z,100087.84
2023-04-24T10:12:26.287Z,100104.56
2023-04-24T10:17:29.588Z,100106.69
2023-04-24T10:22:31.980Z,100100.31
2023-04-24T10:27:34.147Z,100116.28
2023-04-24T10:32:36.478Z,100115.13
2023-04-24T10:37:40.986Z,100123.56
2023-04-24T10:42:45.620Z,100118.25
2023-04-24T10:48:12.414Z,100119.31
2023-04-24T10:53:24.535Z,100126.63
2023-04-24T10:58:38.679Z,100137.38
2023-04-24T11:03:52.325Z,100148.28
2023-04-24T11:09:04.033Z,100147.34
2023-04-24T11:14:07.978Z,100141.28
2023-04-24T11:19:18.532Z,100165.00
2023-04-24T11:24:52.140Z,100174.41
2023-04-24T11:29:57.321Z,100177.06
2023-04-24T11:35:17.502Z,100180.50
2023-04-24T11:40:27.124Z,100191.22
2023-04-24T11:45:31.226Z,100196.38
2023-04-24T11:50:32.988Z,100206.03
2023-04-24T11:55:34.872Z,100198.28
2023-04-24T12:00:37.068Z,100207.09
2023-04-24T12:05:40.354Z,100218.59
2023-04-24T12:10:42.252Z,100220.41
2023-04-24T12:15:44.746Z,100222.88
2023-04-24T12:20:46.630Z,100216.91
2023-04-24T12:25:48.421Z,100210.72
2023-04-24T12:30:51.515Z,100223.72
2023-04-24T12:35:55.154Z,100218.31
2023-04-24T12:41:08.101Z,100228.28
2023-04-24T12:46:09.989Z,100238.56
2023-04-24T12:51:12.131Z,100238.19
2023-04-24T12:56:13.879Z,100245.28
2023-04-24T13:01:15.854Z,100239.97
2023-04-24T13:06:17.760Z,100252.25
2023-04-24T13:11:19.668Z,100262.91
2023-04-24T13:16:21.524Z,100250.53
2023-04-24T13:21:23.363Z,100251.19
2023-04-24T13:26:25.261Z,100246.94
2023-04-24T13:31:27.274Z,100269.81
2023-04-24T13:36:29.174Z,100268.09
2023-04-24T13:41:31.781Z,100256.53
2023-04-24T13:46:33.930Z,100264.59
2023-04-24T13:51:35.859Z,100262.91
2023-04-24T13:56:37.768Z,100270.97
2023-04-24T14:01:40.212Z,100261.94
2023-04-24T14:06:42.123Z,100248.81
2023-04-24T14:11:44.049Z,100248.72
2023-04-24T14:16:45.906Z,100245.88
2023-04-24T14:21:47.811Z,100235.41
2023-04-24T14:26:49.690Z,100237.22
2023-04-24T14:31:51.647Z,100246.16
2023-04-24T14:36:54.720Z,100246.94
2023-04-24T14:41:56.598Z,100242.63
2023-04-24T14:46:58.456Z,100256.69
2023-04-24T14:52:00.697Z,100250.53
2023-04-24T14:57:02.855Z,100246.06
2023-04-24T15:02:15.508Z,100252.34
2023-04-24T15:07:18.066Z,100258.41
2023-04-24T15:12:20.238Z,100261.09
2023-04-24T15:17:22.083Z,100267.47
2023-04-24T15:22:23.932Z,100266.69
2023-04-24T15:27:25.934Z,100263.06
2023-04-24T15:32:28.090Z,100268.31
2023-04-24T15:37:29.967Z,100271.81
2023-04-24T15:42:31.874Z,100272.94
2023-04-24T15:47:33.851Z,100267.47
2023-04-24T15:52:36.237Z,100265.72
2023-04-24T15:57:38.321Z,100264.97
2023-04-24T16:02:40.715Z,100270.38
2023-04-24T16:07:42.815Z,100269.25
2023-04-24T16:12:44.615Z,100271.06
2023-04-24T16:17:46.670Z,100272.88
2023-04-24T16:22:48.610Z,100279.13
2023-04-24T16:27:52.897Z,100281.78
2023-04-24T16:32:54.823Z,100284.56
2023-04-24T16:37:56.637Z,100280.16
2023-04-24T16:42:58.704Z,100286.25
2023-04-24T16:48:01.054Z,100293.31
2023-04-24T16:53:02.937Z,100295.19
2023-04-24T16:58:04.782Z,100307.53
2023-04-24T17:03:06.708Z,100319.03
2023-04-24T17:08:08.685Z,100318.09
2023-04-24T17:13:10.596Z,100318.28
2023-04-24T17:18:12.524Z,100320.09
2023-04-24T17:23:14.543Z,100326.25
2023-04-24T17:28:27.871Z,100318.38
2023-04-24T17:33:31.227Z,100323.78
2023-04-24T17:38:33.670Z,100332.75
2023-04-24T17:43:35.418Z,100336.06
2023-04-24T17:48:37.333Z,100333.31
2023-04-24T17:53:39.843Z,100333.38
2023-04-24T17:58:41.864Z,100345.94
2023-04-24T18:03:47.026Z,100338.72
2023-04-24T18:08:49.315Z,100341.66
2023-04-24T18:13:51.712Z,100350.41
2023-04-24T18:18:56.669Z,100355.72
2023-04-24T18:24:00.649Z,100367.34
2023-04-24T18:29:02.449Z,100368.94
2023-04-24T18:34:04.703Z,100367.34
2023-04-24T18:39:06.622Z,100366.38
2023-04-24T18:44:09.427Z,100366.47
2023-04-24T18:49:11.234Z,100386.03
2023-04-24T18:54:13.105Z,100386.88
2023-04-24T18:59:14.978Z,100387.84
2023-04-24T19:04:16.834Z,100403.72
2023-04-24T19:09:18.742Z,100410.69
2023-04-24T19:14:22.844Z,100416.06
2023-04-24T19:19:26.338Z,100425.00
2023-04-24T19:24:29.451Z,100437.53
2023-04-24T19:29:31.262Z,100435.84
2023-04-24T19:34:34.813Z,100443.81
2023-04-24T19:39:36.845Z,100450.06
2023-04-24T19:44:38.748Z,100452.72
2023-04-24T19:49:40.644Z,100446.47
2023-04-24T19:54:42.425Z,100455.38
2023-04-24T19:59:44.196Z,100453.50
2023-04-24T20:04:46.359Z,100458.81
2023-04-24T20:09:48.541Z,100458.06
2023-04-24T20:14:50.361Z,100461.59
2023-04-24T20:19:52.206Z,100455.31
2023-04-24T20:24:54.147Z,100454.38
2023-04-24T20:29:56.220Z,100447.97
2023-04-24T20:34:58.568Z,100445.03
2023-04-24T20:40:05.102Z,100439.63
2023-04-24T20:45:08.175Z,100452.69
2023-04-24T20:50:10.600Z,100452.31
2023-04-24T20:55:12.386Z,100453.84
2023-04-24T21:00:14.803Z,100454.03
2023-04-24T21:05:16.729Z,100440.31
2023-04-24T21:10:19.690Z,100438.50
2023-04-24T21:15:21.592Z,100445.72
2023-04-24T21:20:23.379Z,100450.06
2023-04-24T21:25:25.209Z,100450.06
2023-04-24T21:30:27.162Z,100450.06
2023-04-24T21:35:28.951Z,100466.16
2023-04-24T21:40:30.882Z,100459.84
2023-04-24T21:45:32.664Z,100454.53
2023-04-24T21:50:34.472Z,100451.78
2023-04-24T21:55:36.269Z,100455.38
2023-04-24T22:00:38.133Z,100451.03
2023-04-24T22:05:39.862Z,100448.53
2023-04-24T22:10:41.681Z,100451.88
2023-04-24T22:15:43.533Z,100442.19
2023-04-24T22:20:46.866Z,100443.22
2023-04-24T22:25:48.775Z,100440.38
2023-04-24T22:30:50.639Z,100444.94
2023-04-24T22:35:52.417Z,100445.88
2023-04-24T22:40:54.423Z,100450.19
2023-04-24T22:45:56.554Z,100446.06
2023-04-24T22:50:58.518Z,100443.41
2023-04-24T22:56:00.505Z,100443.03
2023-04-24T23:01:02.402Z,100439.69
2023-04-24T23:06:04.604Z,100450.53
2023-04-24T23:11:06.516Z,100441.44
2023-04-24T23:16:08.332Z,100441.44
2023-04-24T23:21:10.507Z,100444.25
2023-04-24T23:26:12.370Z,100445.09
2023-04-24T23:31:14.101Z,100446.84
2023-04-24T23:36:16.013Z,100450.53
2023-04-24T23:41:18.828Z,100444.09
2023-04-24T23:46:20.663Z,100441.66
2023-04-24T23:51:22.817Z,100447.69
2023-04-24T23:56:26.878Z,100437.22
